Terminal Aerodrome Forecast
Issued by NWS

Home | Current Version | Previous Version | Text Only | Print | Product List | Glossary On
Versions: 1 2 3 4 5 6 7 8 9 10 11 12 13
000
FTUS44 KLZK 220500
TAFBPK
TAF
KBPK 220538Z 2206/2306 18004KT P6SM SCT250
     FM221400 21008KT P6SM SCT250
     FM230100 18005KT P6SM SCT250=

USA.gov is the U.S. government's official web portal to all federal, state and local government web resources and services.